Time;durP1;ratioP1;P1;durP2;ratioP2;P2;SDS_P1;SDS_P2;PMS_P1;PMS_P2;Temp;Humidity;BMP_temperature;BMP_pressure;BME280_temperature;BME280_humidity;BME280_pressure;Samples;Min_cycle;Max_cycle;Signal;HPM_P1;HPM_P2
2020/12/16 00:00:50;;;;;;;150.20;39.90;;;7.70;99.90;;;;;;5051628;28;20075;-78
2020/12/16 00:03:16;;;;;;;132.43;37.92;;;7.70;99.90;;;;;;5051665;28;20039;-78
2020/12/16 00:05:41;;;;;;;122.03;35.03;;;7.70;99.90;;;;;;5065623;28;20024;-78
2020/12/16 00:08:07;;;;;;;126.68;36.58;;;7.70;99.90;;;;;;5071566;28;20107;-78
2020/12/16 00:10:33;;;;;;;115.90;34.97;;;7.70;99.90;;;;;;5071604;28;20099;-78
2020/12/16 00:12:59;;;;;;;120.82;34.03;;;7.70;99.90;;;;;;5071600;28;20524;-78
2020/12/16 00:15:26;;;;;;;115.78;31.75;;;7.60;99.90;;;;;;5061671;28;20056;-78
2020/12/16 00:17:52;;;;;;;106.75;31.88;;;7.70;99.90;;;;;;5060691;28;20085;-78
2020/12/16 00:20:17;;;;;;;111.20;33.20;;;7.60;99.90;;;;;;5075245;28;20040;-78
2020/12/16 00:22:43;;;;;;;123.35;32.63;;;7.70;99.90;;;;;;5075521;28;20029;-78
2020/12/16 00:25:10;;;;;;;121.45;33.13;;;7.60;99.90;;;;;;5069378;28;20035;-78
2020/12/16 00:27:36;;;;;;;111.65;33.60;;;7.70;99.90;;;;;;5055284;28;20500;-79
2020/12/16 00:30:06;;;;;;;106.60;32.08;;;7.70;99.90;;;;;;5055339;28;20032;-78
2020/12/16 00:32:35;;;;;;;106.22;30.02;;;7.60;99.90;;;;;;5055297;28;20037;-78
2020/12/16 00:35:00;;;;;;;114.18;33.38;;;7.60;99.90;;;;;;5064742;28;20070;-78
2020/12/16 00:37:26;;;;;;;120.88;31.88;;;7.50;99.90;;;;;;5073976;28;20032;-78
2020/12/16 00:39:51;;;;;;;117.78;30.23;;;7.60;99.90;;;;;;5075083;28;20031;-78
2020/12/16 00:42:17;;;;;;;91.88;28.90;;;7.60;99.90;;;;;;5075128;28;20068;-78
2020/12/16 00:44:43;;;;;;;98.32;30.58;;;7.50;99.90;;;;;;5069955;28;20025;-78
2020/12/16 00:47:08;;;;;;;111.95;29.88;;;7.50;99.90;;;;;;5054895;28;20033;-78
2020/12/16 00:49:34;;;;;;;98.93;29.30;;;7.60;99.90;;;;;;5054992;28;20560;-78
2020/12/16 00:51:59;;;;;;;91.25;28.00;;;7.50;99.90;;;;;;5053775;28;20411;-78
2020/12/16 00:54:25;;;;;;;102.35;30.27;;;7.50;99.90;;;;;;5054502;28;20056;-78
2020/12/16 00:56:50;;;;;;;113.55;31.63;;;7.50;99.90;;;;;;5073927;28;20028;-78
2020/12/16 00:59:16;;;;;;;97.13;28.40;;;7.50;99.90;;;;;;5074857;28;20024;-78
2020/12/16 01:01:41;;;;;;;103.35;29.25;;;7.50;99.90;;;;;;5074722;28;20032;-78
2020/12/16 01:04:07;;;;;;;124.85;32.45;;;7.60;99.90;;;;;;5071564;28;20489;-78
2020/12/16 01:06:33;;;;;;;111.45;30.48;;;7.50;99.90;;;;;;5054503;28;20029;-78
2020/12/16 01:08:58;;;;;;;117.28;31.95;;;7.50;99.90;;;;;;5054598;28;20029;-78
2020/12/16 01:11:24;;;;;;;119.32;31.50;;;7.50;99.90;;;;;;5054646;28;20079;-78
2020/12/16 01:13:49;;;;;;;107.45;28.63;;;7.40;99.90;;;;;;5053084;28;20091;-78
2020/12/16 01:16:15;;;;;;;106.63;29.63;;;7.40;99.90;;;;;;5071517;28;20036;-78
2020/12/16 01:18:40;;;;;;;93.28;29.48;;;7.50;99.90;;;;;;5074505;28;20024;-78
2020/12/16 01:21:06;;;;;;;128.32;32.00;;;7.50;99.90;;;;;;5074185;28;20064;-78
2020/12/16 01:23:31;;;;;;;122.22;34.10;;;7.50;99.90;;;;;;5074346;28;20070;-78
2020/12/16 01:25:57;;;;;;;114.07;34.28;;;7.50;99.90;;;;;;5061214;28;20462;-79
2020/12/16 01:28:23;;;;;;;124.70;35.95;;;7.40;99.90;;;;;;5054360;28;20025;-78
2020/12/16 01:30:48;;;;;;;108.40;33.28;;;7.50;99.90;;;;;;5054235;28;20108;-78
2020/12/16 01:33:14;;;;;;;139.77;37.47;;;7.50;99.90;;;;;;5054164;28;20103;-78
2020/12/16 01:35:39;;;;;;;132.52;34.10;;;7.40;99.90;;;;;;5068178;28;20024;-78
2020/12/16 01:38:05;;;;;;;123.55;35.50;;;7.40;99.90;;;;;;5074311;28;20020;-78
2020/12/16 01:40:31;;;;;;;130.27;34.85;;;7.50;99.90;;;;;;5072883;28;20380;-78
2020/12/16 01:42:56;;;;;;;161.90;37.45;;;7.50;99.90;;;;;;5074028;28;20028;-78
2020/12/16 01:45:23;;;;;;;137.75;36.08;;;7.40;99.90;;;;;;5062303;28;20037;-77
2020/12/16 01:47:50;;;;;;;169.43;38.45;;;7.50;99.90;;;;;;5052580;28;20033;-78
2020/12/16 01:50:16;;;;;;;133.10;35.92;;;7.50;99.90;;;;;;5052574;28;20032;-78
2020/12/16 01:52:42;;;;;;;134.13;35.50;;;7.40;99.90;;;;;;5053772;28;20092;-78
2020/12/16 01:55:11;;;;;;;150.55;38.88;;;7.50;99.90;;;;;;5058584;28;20020;-78
2020/12/16 01:57:39;;;;;;;195.05;40.20;;;7.50;99.90;;;;;;5072319;28;20024;-78
2020/12/16 02:00:08;;;;;;;155.13;40.75;;;7.50;99.90;;;;;;5072324;28;20052;-78
2020/12/16 02:02:38;;;;;;;155.30;38.55;;;7.50;99.90;;;;;;5073679;28;20078;-78
2020/12/16 02:05:05;;;;;;;175.60;40.65;;;7.50;99.90;;;;;;5062721;28;20074;-78
2020/12/16 02:07:32;;;;;;;176.90;40.42;;;7.40;99.90;;;;;;5053354;28;20115;-78
2020/12/16 02:09:58;;;;;;;187.23;43.08;;;7.50;99.90;;;;;;5052256;28;20104;-78
2020/12/16 02:12:29;;;;;;;195.43;40.80;;;7.50;99.90;;;;;;5052225;28;20028;-78
2020/12/16 02:14:55;;;;;;;191.35;42.38;;;7.50;99.90;;;;;;5059185;28;20078;-78
2020/12/16 02:17:20;;;;;;;155.32;38.63;;;7.50;99.90;;;;;;5073176;28;20029;-78
2020/12/16 02:19:57;;;;;;;194.68;42.42;;;7.50;99.90;;;;;;5072889;28;20056;-78
2020/12/16 02:22:23;;;;;;;229.00;48.22;;;7.50;99.90;;;;;;5073168;28;20085;-78
2020/12/16 02:25:12;;;;;;;218.27;49.25;;;7.60;99.90;;;;;;5070335;28;20033;-78
2020/12/16 02:27:39;;;;;;;185.30;47.35;;;7.60;99.90;;;;;;5052555;28;20052;-78
2020/12/16 02:30:06;;;;;;;172.68;44.75;;;7.60;99.90;;;;;;5053033;28;20028;-78
2020/12/16 02:32:32;;;;;;;213.27;49.25;;;7.60;99.90;;;;;;5053039;28;20032;-78
2020/12/16 02:34:58;;;;;;;186.73;47.03;;;7.60;99.90;;;;;;5051791;28;20071;-78
2020/12/16 02:37:25;;;;;;;208.43;52.40;;;7.70;99.90;;;;;;5051129;28;20029;-79
2020/12/16 02:39:52;;;;;;;231.30;52.17;;;7.70;99.90;;;;;;5051743;28;20134;-78
2020/12/16 02:42:25;;;;;;;217.63;51.08;;;7.70;99.90;;;;;;5052854;28;20040;-78
2020/12/16 02:44:52;;;;;;;214.75;51.88;;;7.60;99.90;;;;;;5057989;28;20067;-78
2020/12/16 02:47:18;;;;;;;252.13;53.50;;;7.70;99.90;;;;;;5071296;28;20033;-78
2020/12/16 02:49:44;;;;;;;237.15;52.78;;;7.70;99.90;;;;;;5072401;28;20031;-78
2020/12/16 02:52:10;;;;;;;214.80;51.13;;;7.70;99.90;;;;;;5072700;28;20021;-78
2020/12/16 02:54:36;;;;;;;232.23;54.90;;;7.60;99.90;;;;;;5070604;28;20034;-78
2020/12/16 02:57:03;;;;;;;215.50;50.70;;;7.70;99.90;;;;;;5071206;28;20029;-78
2020/12/16 02:59:29;;;;;;;243.52;52.45;;;7.60;99.90;;;;;;5071159;28;20507;-78
2020/12/16 03:01:56;;;;;;;208.10;46.85;;;7.60;99.90;;;;;;5072516;28;20032;-78
2020/12/16 03:04:23;;;;;;;208.98;49.20;;;7.60;99.90;;;;;;5061009;28;20043;-78
2020/12/16 03:06:50;;;;;;;221.00;49.60;;;7.60;99.90;;;;;;5052400;28;20029;-78
2020/12/16 03:09:17;;;;;;;170.05;44.50;;;7.60;99.90;;;;;;5051083;28;20547;-78
2020/12/16 03:11:43;;;;;;;176.38;42.65;;;7.60;99.90;;;;;;5052291;28;20086;-78
2020/12/16 03:14:10;;;;;;;176.57;42.13;;;7.60;99.90;;;;;;5056919;28;20028;-78
2020/12/16 03:16:36;;;;;;;188.10;44.33;;;7.60;99.90;;;;;;5070827;28;20028;-78
2020/12/16 03:19:02;;;;;;;164.02;42.80;;;7.60;99.90;;;;;;5070080;28;20073;-78
2020/12/16 03:21:28;;;;;;;171.13;45.20;;;7.60;99.90;;;;;;5052198;28;20040;-78
2020/12/16 03:23:55;;;;;;;161.18;42.40;;;7.60;99.90;;;;;;5051901;28;20025;-78
2020/12/16 03:26:21;;;;;;;182.10;44.22;;;7.50;99.90;;;;;;5071876;28;20100;-78
2020/12/16 03:28:47;;;;;;;214.73;45.05;;;7.60;99.90;;;;;;5071972;28;20043;-78
2020/12/16 03:31:13;;;;;;;185.75;46.85;;;7.60;99.90;;;;;;5069844;28;20020;-78
2020/12/16 03:33:40;;;;;;;172.55;44.40;;;7.60;99.90;;;;;;5070917;28;20103;-78
2020/12/16 03:36:06;;;;;;;180.52;42.85;;;7.60;99.90;;;;;;5052690;28;20037;-78
2020/12/16 03:38:31;;;;;;;165.50;43.67;;;7.60;99.90;;;;;;5051857;28;20029;-78
2020/12/16 03:40:57;;;;;;;161.82;43.90;;;7.60;99.90;;;;;;5050516;28;20033;-78
2020/12/16 03:43:23;;;;;;;150.18;39.42;;;7.60;99.90;;;;;;5051783;28;20078;-78
2020/12/16 03:45:50;;;;;;;164.48;43.80;;;7.60;99.90;;;;;;5064818;28;20039;-78
2020/12/16 03:48:17;;;;;;;156.95;40.78;;;7.50;99.90;;;;;;5071672;28;20072;-78
2020/12/16 03:50:43;;;;;;;157.15;41.33;;;7.60;99.90;;;;;;5071523;28;20052;-78
2020/12/16 03:53:08;;;;;;;142.80;38.75;;;7.70;99.90;;;;;;5071745;28;20063;-78
2020/12/16 03:55:34;;;;;;;156.40;42.72;;;7.50;99.90;;;;;;5062552;28;20025;-78
2020/12/16 03:57:59;;;;;;;153.95;38.63;;;7.50;99.90;;;;;;5050305;28;20473;-78
2020/12/16 04:00:25;;;;;;;148.60;41.40;;;7.50;99.90;;;;;;5051705;28;20133;-78
2020/12/16 04:02:50;;;;;;;157.65;41.00;;;7.50;99.90;;;;;;5051627;28;20035;-78
2020/12/16 04:05:16;;;;;;;155.25;40.92;;;7.40;99.90;;;;;;5063235;28;20111;-78
2020/12/16 04:07:42;;;;;;;132.05;40.72;;;7.40;99.90;;;;;;5070214;28;20025;-78
2020/12/16 04:10:07;;;;;;;158.77;42.05;;;7.40;99.90;;;;;;5071548;28;20485;-78
2020/12/16 04:12:33;;;;;;;168.98;41.67;;;7.40;99.90;;;;;;5071588;28;20089;-78
2020/12/16 04:14:58;;;;;;;157.05;40.53;;;7.30;99.90;;;;;;5064521;28;20064;-78
2020/12/16 04:17:24;;;;;;;145.38;38.72;;;7.40;99.90;;;;;;5051439;28;20099;-78
2020/12/16 04:19:49;;;;;;;132.50;37.53;;;7.40;99.90;;;;;;5050295;28;20040;-78
2020/12/16 04:22:15;;;;;;;156.27;38.33;;;7.40;99.90;;;;;;5051497;28;20024;-78
2020/12/16 04:24:41;;;;;;;146.50;39.05;;;7.40;99.90;;;;;;5052230;28;20100;-78
2020/12/16 04:27:06;;;;;;;139.80;38.22;;;7.40;99.90;;;;;;5071260;28;20489;-78
2020/12/16 04:29:32;;;;;;;135.57;38.95;;;7.40;99.90;;;;;;5071169;28;20489;-78
2020/12/16 04:31:57;;;;;;;141.77;38.58;;;7.40;99.90;;;;;;5071451;28;20056;-78
2020/12/16 04:34:23;;;;;;;137.93;39.38;;;7.40;99.90;;;;;;5066338;28;20025;-78
2020/12/16 04:36:50;;;;;;;132.25;39.38;;;7.40;99.90;;;;;;5051237;28;20536;-78
2020/12/16 04:39:17;;;;;;;133.88;38.83;;;7.40;99.90;;;;;;5050287;28;20397;-78
2020/12/16 04:41:43;;;;;;;155.00;40.35;;;7.40;99.90;;;;;;5051244;28;20017;-78
2020/12/16 04:44:10;;;;;;;138.15;37.88;;;7.40;99.90;;;;;;5049870;28;20029;-78
2020/12/16 04:46:40;;;;;;;137.55;39.25;;;7.40;99.90;;;;;;5069574;28;20024;-79
2020/12/16 04:49:08;;;;;;;125.57;39.75;;;7.30;99.90;;;;;;5069713;28;20029;-78
2020/12/16 04:51:35;;;;;;;134.35;39.58;;;7.30;99.90;;;;;;5070047;28;20027;-78
2020/12/16 04:54:01;;;;;;;138.90;38.10;;;7.30;99.90;;;;;;5070912;28;20536;-78
2020/12/16 04:56:29;;;;;;;137.02;40.63;;;7.30;99.90;;;;;;5053787;28;20063;-78
2020/12/16 04:58:55;;;;;;;137.25;38.92;;;7.30;99.90;;;;;;5051108;28;20452;-78
2020/12/16 05:01:21;;;;;;;122.18;36.80;;;7.30;99.90;;;;;;5052122;28;20025;-78
2020/12/16 05:03:46;;;;;;;150.73;42.92;;;7.30;99.90;;;;;;5053362;28;20033;-78
2020/12/16 05:06:31;;;;;;;114.60;35.88;;;7.30;99.90;;;;;;5072731;28;20472;-78
2020/12/16 05:09:11;;;;;;;135.77;38.40;;;7.30;99.90;;;;;;5074697;28;20369;-78
2020/12/16 05:11:39;;;;;;;132.02;36.03;;;7.30;99.90;;;;;;5074708;28;20021;-78
2020/12/16 05:14:16;;;;;;;132.30;37.35;;;7.20;99.90;;;;;;5074433;28;20104;-78
2020/12/16 05:16:56;;;;;;;139.63;38.58;;;7.20;99.90;;;;;;5054501;28;20032;-78
2020/12/16 05:19:38;;;;;;;121.18;37.53;;;7.20;99.90;;;;;;5054438;28;20036;-78
2020/12/16 05:22:19;;;;;;;140.57;37.78;;;7.20;99.90;;;;;;5054428;28;20047;-79
2020/12/16 05:24:46;;;;;;;148.50;38.58;;;7.20;99.90;;;;;;5055603;28;20099;-78
2020/12/16 05:27:21;;;;;;;148.38;39.90;;;7.20;99.90;;;;;;5074094;28;20031;-78
2020/12/16 05:29:51;;;;;;;144.85;41.08;;;7.20;99.90;;;;;;5074310;28;20070;-78
2020/12/16 05:32:26;;;;;;;141.52;41.50;;;7.20;99.90;;;;;;5073015;28;20020;-78
2020/12/16 05:34:53;;;;;;;138.27;37.25;;;7.20;99.90;;;;;;5064080;28;20029;-78
2020/12/16 05:37:22;;;;;;;149.20;42.80;;;7.20;99.90;;;;;;5054070;28;20052;-78
2020/12/16 05:40:00;;;;;;;136.82;39.35;;;7.10;99.90;;;;;;5053939;28;20402;-78
2020/12/16 05:42:26;;;;;;;148.60;41.13;;;7.10;99.90;;;;;;5054075;28;20393;-78
2020/12/16 05:44:53;;;;;;;150.90;41.88;;;7.10;99.90;;;;;;5057919;28;20051;-78
2020/12/16 05:47:19;;;;;;;166.18;45.47;;;7.10;99.90;;;;;;5073732;28;20108;-78
2020/12/16 05:49:45;;;;;;;131.18;41.03;;;7.20;99.90;;;;;;5073608;28;20108;-78
2020/12/16 05:52:10;;;;;;;155.88;44.05;;;7.20;99.90;;;;;;5073944;28;20052;-78
2020/12/16 05:54:37;;;;;;;130.73;38.63;;;7.10;99.90;;;;;;5071474;28;20508;-78
2020/12/16 05:57:29;;;;;;;139.93;42.80;;;7.20;99.90;;;;;;5072407;28;20484;-78
2020/12/16 06:00:04;;;;;;;139.95;42.45;;;7.10;99.90;;;;;;5072527;28;20032;-78
2020/12/16 06:02:36;;;;;;;129.75;42.00;;;7.10;99.90;;;;;;5073762;28;20499;-78
2020/12/16 06:05:03;;;;;;;130.00;41.00;;;7.10;99.90;;;;;;5063497;28;20028;-78
2020/12/16 06:07:31;;;;;;;136.70;40.92;;;7.10;99.90;;;;;;5053354;28;20378;-78
2020/12/16 06:09:57;;;;;;;109.47;39.67;;;7.10;99.90;;;;;;5053547;28;20629;-78
2020/12/16 06:12:27;;;;;;;144.25;39.10;;;7.10;99.90;;;;;;5051071;28;20043;-78
2020/12/16 06:15:07;;;;;;;136.10;39.97;;;7.10;99.90;;;;;;5057355;28;20028;-78
2020/12/16 06:17:43;;;;;;;131.20;39.10;;;7.10;99.90;;;;;;5072031;28;20033;-78
2020/12/16 06:20:14;;;;;;;153.75;43.13;;;7.20;99.90;;;;;;5071942;28;20695;-78
2020/12/16 06:22:44;;;;;;;140.32;41.67;;;7.20;99.90;;;;;;5073268;28;20036;-78
2020/12/16 06:25:13;;;;;;;133.43;37.60;;;7.20;99.90;;;;;;5066566;28;20116;-78
2020/12/16 06:27:50;;;;;;;120.65;38.63;;;7.10;99.90;;;;;;5051754;28;20082;-78
2020/12/16 06:30:30;;;;;;;144.45;41.33;;;7.00;99.90;;;;;;5053145;28;20511;-78
2020/12/16 06:33:07;;;;;;;140.52;42.17;;;7.00;99.90;;;;;;5051874;28;20027;-78
2020/12/16 06:35:33;;;;;;;138.07;40.75;;;7.00;99.90;;;;;;5065293;28;20115;-78
2020/12/16 06:38:20;;;;;;;128.00;38.83;;;6.90;99.90;;;;;;5071594;28;20124;-78
2020/12/16 06:40:56;;;;;;;169.27;41.85;;;6.80;99.90;;;;;;5072960;28;20021;-78
2020/12/16 06:43:30;;;;;;;141.60;39.78;;;6.70;99.90;;;;;;5071724;28;20028;-78
2020/12/16 06:45:57;;;;;;;126.32;39.70;;;6.60;99.90;;;;;;5056827;28;20124;-78
2020/12/16 06:48:36;;;;;;;154.32;42.38;;;6.60;99.90;;;;;;5052781;28;20163;-78
2020/12/16 06:51:20;;;;;;;132.70;37.97;;;6.50;99.90;;;;;;5052723;28;20032;-78
2020/12/16 06:53:47;;;;;;;155.98;41.72;;;6.50;99.90;;;;;;5052393;28;20021;-78
2020/12/16 06:56:18;;;;;;;169.80;43.22;;;6.40;99.90;;;;;;5065476;28;20118;-78
2020/12/16 06:58:44;;;;;;;148.00;39.40;;;6.40;99.90;;;;;;5071323;28;20032;-78
2020/12/16 07:01:14;;;;;;;159.70;41.95;;;6.30;99.90;;;;;;5071219;28;20423;-77
2020/12/16 07:03:40;;;;;;;163.52;41.63;;;6.30;99.90;;;;;;5072399;28;20025;-79
2020/12/16 07:06:13;;;;;;;162.00;40.85;;;6.30;99.90;;;;;;5063517;28;20124;-78
2020/12/16 07:08:39;;;;;;;169.05;42.80;;;6.20;99.90;;;;;;5072380;28;20024;-78
2020/12/16 07:11:05;;;;;;;169.38;41.08;;;6.20;99.90;;;;;;5072340;28;20020;-78
2020/12/16 07:13:33;;;;;;;154.25;44.67;;;6.10;99.90;;;;;;5070980;28;20055;-78
2020/12/16 07:16:09;;;;;;;152.52;42.17;;;6.10;99.90;;;;;;5065948;28;20032;-78
2020/12/16 07:18:45;;;;;;;164.88;44.45;;;6.10;99.90;;;;;;5054897;28;20052;-78
2020/12/16 07:21:11;;;;;;;170.32;40.40;;;6.10;99.90;;;;;;5069236;28;20377;-78
2020/12/16 07:23:43;;;;;;;154.57;41.38;;;6.10;99.90;;;;;;5071367;28;20081;-78
2020/12/16 07:26:09;;;;;;;159.73;41.20;;;6.10;99.90;;;;;;5067480;28;20078;-78
2020/12/16 07:28:38;;;;;;;172.70;42.25;;;6.10;99.90;;;;;;5050855;28;20032;-78
2020/12/16 07:31:06;;;;;;;167.98;43.25;;;6.00;99.90;;;;;;5052045;28;20021;-78
2020/12/16 07:33:33;;;;;;;182.77;44.70;;;5.90;99.90;;;;;;5050759;28;20021;-78
2020/12/16 07:36:00;;;;;;;161.95;42.83;;;5.90;99.90;;;;;;5067595;28;20488;-78
2020/12/16 07:38:26;;;;;;;176.48;43.30;;;5.80;99.90;;;;;;5071938;28;20035;-78
2020/12/16 07:40:53;;;;;;;165.27;43.03;;;5.70;99.90;;;;;;5071966;28;20021;-78
2020/12/16 07:43:20;;;;;;;180.32;43.13;;;5.70;99.90;;;;;;5070630;28;20473;-77
2020/12/16 07:46:06;;;;;;;176.77;43.95;;;5.80;99.90;;;;;;5058349;28;20070;-78
2020/12/16 07:48:36;;;;;;;182.52;43.15;;;5.80;99.90;;;;;;5058443;28;20476;-77
2020/12/16 07:51:05;;;;;;;183.07;44.33;;;5.70;99.90;;;;;;5067984;28;20029;-78
2020/12/16 07:53:32;;;;;;;183.50;42.70;;;5.70;99.90;;;;;;5070134;28;20032;-78
2020/12/16 07:56:02;;;;;;;173.80;45.00;;;5.60;99.90;;;;;;5067336;28;20055;-77
2020/12/16 07:58:32;;;;;;;157.50;42.05;;;5.70;99.90;;;;;;5050390;28;20430;-77
2020/12/16 08:01:11;;;;;;;166.75;41.58;;;5.70;99.90;;;;;;5052660;28;20017;-78
2020/12/16 08:03:38;;;;;;;163.27;43.53;;;5.70;99.90;;;;;;5060944;28;20031;-78
2020/12/16 08:06:04;;;;;;;189.38;43.45;;;5.70;99.90;;;;;;5051163;28;20025;-78
2020/12/16 08:08:30;;;;;;;172.70;44.45;;;5.70;99.90;;;;;;5048637;28;20067;-78
2020/12/16 08:10:56;;;;;;;179.98;46.03;;;5.70;99.90;;;;;;5050494;28;20029;-78
2020/12/16 08:13:27;;;;;;;154.80;41.22;;;5.70;99.90;;;;;;5049124;28;20017;-78
2020/12/16 08:16:03;;;;;;;172.05;41.97;;;5.70;99.90;;;;;;5062127;28;20488;-78
2020/12/16 08:18:29;;;;;;;161.35;41.55;;;5.50;99.90;;;;;;5069086;28;20035;-78
2020/12/16 08:20:54;;;;;;;168.32;42.63;;;5.60;99.90;;;;;;5070009;28;20025;-78
2020/12/16 08:23:20;;;;;;;162.57;41.50;;;5.50;99.90;;;;;;5070488;28;20078;-78
2020/12/16 08:25:45;;;;;;;174.98;42.55;;;5.60;99.90;;;;;;5061682;28;20053;-78
2020/12/16 08:28:11;;;;;;;165.48;42.35;;;5.60;99.90;;;;;;5052914;28;20033;-78
2020/12/16 08:30:38;;;;;;;165.20;43.88;;;5.60;99.90;;;;;;5089272;28;20492;-78
2020/12/16 08:33:08;;;;;;;166.75;42.13;;;5.70;99.90;;;;;;5087134;28;20660;-78
2020/12/16 08:35:52;;;;;;;164.43;42.85;;;5.70;99.90;;;;;;5075524;28;20150;-78
2020/12/16 08:38:29;;;;;;;147.23;40.88;;;5.70;99.90;;;;;;5073348;28;20032;-78
2020/12/16 08:40:56;;;;;;;149.52;42.83;;;5.70;99.90;;;;;;5068359;28;20063;-78
2020/12/16 08:43:29;;;;;;;158.52;40.53;;;5.80;99.90;;;;;;5058735;28;20056;-78
2020/12/16 08:46:18;;;;;;;160.60;39.78;;;5.80;99.90;;;;;;5054942;28;20091;-78
2020/12/16 08:48:52;;;;;;;163.82;44.63;;;5.70;99.90;;;;;;5070969;28;20016;-78
2020/12/16 08:51:39;;;;;;;155.07;40.45;;;5.80;99.90;;;;;;5053594;28;20021;-78
2020/12/16 08:54:06;;;;;;;144.05;39.25;;;5.90;99.90;;;;;;5054797;28;20534;-78
2020/12/16 08:56:43;;;;;;;147.98;42.15;;;6.00;99.90;;;;;;5070277;28;20037;-78
2020/12/16 08:59:10;;;;;;;132.30;39.30;;;6.20;99.90;;;;;;5074914;28;20020;-78
2020/12/16 09:01:38;;;;;;;138.65;40.05;;;6.30;99.90;;;;;;5074986;28;20435;-78
2020/12/16 09:04:05;;;;;;;133.45;41.63;;;6.50;99.90;;;;;;5072486;28;20035;-78
2020/12/16 09:06:31;;;;;;;120.40;38.33;;;6.50;99.90;;;;;;5054486;28;20032;-78
2020/12/16 09:08:56;;;;;;;128.30;36.55;;;6.60;99.90;;;;;;5053610;28;20511;-77
2020/12/16 09:11:22;;;;;;;119.72;38.92;;;6.70;99.90;;;;;;5054654;28;20029;-78
2020/12/16 09:13:49;;;;;;;116.32;37.40;;;6.70;99.90;;;;;;5065837;28;20031;-78
2020/12/16 09:16:25;;;;;;;110.78;33.67;;;6.70;99.90;;;;;;5054536;28;20124;-78
2020/12/16 09:18:52;;;;;;;95.70;33.67;;;6.80;99.90;;;;;;5064372;28;20103;-78
2020/12/16 09:21:30;;;;;;;87.80;32.38;;;6.90;99.90;;;;;;5061257;28;20485;-78
2020/12/16 09:23:56;;;;;;;86.95;30.38;;;6.90;99.90;;;;;;5054293;28;20040;-78
2020/12/16 09:26:34;;;;;;;73.60;29.25;;;7.00;99.90;;;;;;5054111;28;20029;-78
2020/12/16 09:28:59;;;;;;;64.50;25.73;;;7.10;99.90;;;;;;5060217;28;20029;-78
2020/12/16 09:31:25;;;;;;;70.15;25.27;;;7.10;99.90;;;;;;5059511;28;20025;-78
2020/12/16 09:33:57;;;;;;;59.83;25.02;;;7.10;99.90;;;;;;5063210;28;20020;-78
2020/12/16 09:36:25;;;;;;;71.60;24.35;;;7.20;99.90;;;;;;5072916;28;20147;-78
2020/12/16 09:38:58;;;;;;;55.22;21.98;;;7.30;99.90;;;;;;5057778;28;20099;-79
2020/12/16 09:41:24;;;;;;;61.63;22.25;;;7.30;99.90;;;;;;5053829;28;20025;-78
2020/12/16 09:43:50;;;;;;;49.30;21.02;;;7.40;99.90;;;;;;5055433;28;20112;-78
2020/12/16 09:46:17;;;;;;;40.28;19.15;;;7.50;99.90;;;;;;5053514;28;20121;-78
2020/12/16 09:48:47;;;;;;;47.72;19.23;;;7.60;99.90;;;;;;5053803;28;20021;-79
2020/12/16 09:51:16;;;;;;;41.92;17.70;;;7.90;99.90;;;;;;5055026;28;20029;-79
2020/12/16 09:53:42;;;;;;;36.45;16.65;;;8.00;99.90;;;;;;5054362;28;20436;-78
2020/12/16 09:56:08;;;;;;;43.40;16.13;;;8.10;99.90;;;;;;5059330;28;20042;-78
2020/12/16 09:58:40;;;;;;;29.10;12.93;;;8.30;99.90;;;;;;5073319;28;20012;-79
2020/12/16 10:01:06;;;;;;;44.60;14.63;;;8.20;99.90;;;;;;5059935;28;20021;-78
2020/12/16 10:03:32;;;;;;;49.00;15.70;;;8.20;99.90;;;;;;5052426;28;20021;-79
2020/12/16 10:05:57;;;;;;;33.47;13.90;;;8.30;99.90;;;;;;5053246;28;20067;-79
2020/12/16 10:08:23;;;;;;;51.20;16.48;;;8.20;99.90;;;;;;5053626;28;20032;-79
2020/12/16 10:10:48;;;;;;;39.25;14.65;;;8.30;99.90;;;;;;5056467;28;20045;-79
2020/12/16 10:13:17;;;;;;;33.20;12.57;;;8.20;99.90;;;;;;5054909;28;20121;-78
2020/12/16 10:15:42;;;;;;;29.33;13.23;;;8.20;99.90;;;;;;5070331;28;20025;-78
2020/12/16 10:18:08;;;;;;;32.25;13.95;;;8.20;99.90;;;;;;5055646;28;20382;-78
2020/12/16 10:20:34;;;;;;;33.97;13.10;;;8.20;99.90;;;;;;5073328;28;20024;-78
2020/12/16 10:23:01;;;;;;;40.45;13.45;;;8.30;99.90;;;;;;5063668;28;20110;-78
2020/12/16 10:25:27;;;;;;;28.50;13.52;;;8.30;99.90;;;;;;5051730;28;20110;-78
2020/12/16 10:27:53;;;;;;;26.40;13.15;;;8.30;99.90;;;;;;5052009;28;20500;-78
2020/12/16 10:30:19;;;;;;;34.63;15.38;;;8.30;99.90;;;;;;5052263;28;20428;-78
2020/12/16 10:32:44;;;;;;;32.80;15.23;;;8.30;99.90;;;;;;5060086;28;20461;-78
2020/12/16 10:35:10;;;;;;;47.10;15.50;;;8.30;99.90;;;;;;5076078;28;20025;-78
2020/12/16 10:37:40;;;;;;;31.67;16.60;;;8.30;99.90;;;;;;5051519;28;20485;-79
2020/12/16 10:40:09;;;;;;;36.33;16.02;;;8.30;99.90;;;;;;5057241;28;20024;-78
2020/12/16 10:42:35;;;;;;;41.00;17.88;;;8.30;99.90;;;;;;5072046;28;20028;-79
2020/12/16 10:45:00;;;;;;;45.35;16.88;;;8.40;99.90;;;;;;5071578;28;20021;-78
2020/12/16 10:47:26;;;;;;;45.92;18.40;;;8.40;99.90;;;;;;5071794;28;20032;-78
2020/12/16 10:49:51;;;;;;;36.75;18.20;;;8.50;99.90;;;;;;5072724;28;20468;-78
2020/12/16 10:52:17;;;;;;;41.15;17.85;;;8.60;99.90;;;;;;5059542;28;20056;-78
2020/12/16 10:54:42;;;;;;;48.55;19.70;;;8.50;99.90;;;;;;5057588;28;20017;-78
2020/12/16 10:57:09;;;;;;;33.72;18.90;;;8.50;99.90;;;;;;5071109;28;20031;-77
2020/12/16 10:59:34;;;;;;;46.78;20.75;;;8.50;99.90;;;;;;5063573;28;20056;-78
2020/12/16 11:02:00;;;;;;;43.97;20.17;;;8.50;99.90;;;;;;5052839;28;20052;-79
2020/12/16 11:04:28;;;;;;;46.38;21.13;;;8.60;99.90;;;;;;5052076;28;20025;-78
2020/12/16 11:06:54;;;;;;;56.65;20.90;;;8.60;99.90;;;;;;5069711;28;20025;-78
2020/12/16 11:09:20;;;;;;;40.72;20.50;;;8.60;99.90;;;;;;5072323;28;20548;-78
2020/12/16 11:11:51;;;;;;;51.97;22.40;;;8.60;99.90;;;;;;5062130;28;20025;-78
2020/12/16 11:14:17;;;;;;;46.70;21.60;;;8.60;99.90;;;;;;5052139;28;20025;-81
2020/12/16 11:16:44;;;;;;;52.72;24.02;;;8.70;99.90;;;;;;5053224;28;20031;-78
2020/12/16 11:19:15;;;;;;;52.75;24.23;;;8.70;99.90;;;;;;5051660;28;20025;-80
2020/12/16 11:21:49;;;;;;;53.03;23.50;;;8.70;99.90;;;;;;5050896;28;20056;-80
2020/12/16 11:24:17;;;;;;;51.78;24.80;;;8.70;99.90;;;;;;5068031;28;20036;-79
2020/12/16 11:26:46;;;;;;;57.10;24.92;;;8.60;99.90;;;;;;5071521;28;20068;-79
2020/12/16 11:29:13;;;;;;;57.10;25.30;;;8.70;99.90;;;;;;5070305;28;20028;-82
2020/12/16 11:31:40;;;;;;;56.60;26.42;;;8.80;99.90;;;;;;5051794;28;20025;-80
2020/12/16 11:34:06;;;;;;;55.78;26.85;;;8.80;99.90;;;;;;5053353;28;20062;-79
2020/12/16 11:36:33;;;;;;;53.97;25.70;;;8.80;99.90;;;;;;5071711;28;20025;-79
2020/12/16 11:38:59;;;;;;;55.20;27.80;;;8.80;99.90;;;;;;5091327;28;20028;-79
2020/12/16 11:41:25;;;;;;;61.03;26.65;;;8.80;99.90;;;;;;5072302;28;20453;-80
2020/12/16 11:43:50;;;;;;;47.53;24.42;;;8.90;99.90;;;;;;5070236;28;20028;-79
2020/12/16 11:46:16;;;;;;;51.45;25.02;;;8.80;99.90;;;;;;5071383;28;20021;-79
2020/12/16 11:48:41;;;;;;;54.53;26.65;;;8.90;99.90;;;;;;5071606;28;20028;-78
2020/12/16 11:51:07;;;;;;;54.80;25.48;;;8.90;99.90;;;;;;5059561;28;20495;-79
2020/12/16 11:53:32;;;;;;;44.85;25.02;;;8.90;99.90;;;;;;5050227;28;20491;-79
2020/12/16 11:55:59;;;;;;;55.13;25.70;;;9.00;99.90;;;;;;5050177;28;20017;-78
2020/12/16 11:58:27;;;;;;;47.22;25.02;;;9.00;99.90;;;;;;5051669;28;20025;-79
2020/12/16 12:00:53;;;;;;;53.17;24.50;;;9.00;99.90;;;;;;5052225;28;20025;-78
2020/12/16 12:03:19;;;;;;;60.88;26.40;;;9.00;99.90;;;;;;5061413;28;20127;-77
2020/12/16 12:05:44;;;;;;;59.25;24.33;;;9.00;99.90;;;;;;5070146;28;20055;-78
2020/12/16 12:08:10;;;;;;;55.20;25.10;;;9.00;99.90;;;;;;5071428;28;20033;-79
2020/12/16 12:10:35;;;;;;;55.38;24.23;;;9.00;99.90;;;;;;5075957;28;20077;-78
2020/12/16 12:13:01;;;;;;;62.47;25.70;;;9.00;99.90;;;;;;5055673;28;20033;-78
2020/12/16 12:15:27;;;;;;;60.22;25.52;;;9.10;99.90;;;;;;5061362;28;20163;-78
2020/12/16 12:17:52;;;;;;;53.58;25.92;;;9.10;99.90;;;;;;5064591;28;20098;-78
2020/12/16 12:20:18;;;;;;;51.88;26.50;;;9.10;99.90;;;;;;5072993;28;20024;-77
2020/12/16 12:22:43;;;;;;;48.97;22.83;;;9.10;99.90;;;;;;5071211;28;20028;-78
2020/12/16 12:25:09;;;;;;;56.40;26.60;;;9.10;99.90;;;;;;5055312;28;20031;-78
2020/12/16 12:27:35;;;;;;;55.55;26.55;;;9.20;99.90;;;;;;5059627;28;20025;-78
2020/12/16 12:30:00;;;;;;;52.17;24.75;;;9.20;99.90;;;;;;5073768;28;20099;-78
2020/12/16 12:32:26;;;;;;;45.33;23.77;;;9.20;99.90;;;;;;5075217;28;20043;-78
2020/12/16 12:34:52;;;;;;;49.05;25.30;;;9.30;99.90;;;;;;5063263;28;20021;-78